Time;durP1;ratioP1;P1;durP2;ratioP2;P2;SDS_P1;SDS_P2;PMS_P1;PMS_P2;Temp;Humidity;BMP_temperature;BMP_pressure;BME280_temperature;BME280_humidity;BME280_pressure;Samples;Min_cycle;Max_cycle;Signal;HPM_P1;HPM_P2
2023/02/06 00:00:36;;;;;;;15.80;5.70;;;0.30;99.90;;;;;;5053827;28;20073;-91
2023/02/06 00:03:02;;;;;;;16.83;7.20;;;0.30;99.90;;;;;;5054133;28;20174;-91
2023/02/06 00:05:28;;;;;;;14.38;5.65;;;0.30;99.90;;;;;;5053727;28;20049;-92
2023/02/06 00:07:53;;;;;;;13.07;5.32;;;0.20;99.90;;;;;;5053959;28;20428;-92
2023/02/06 00:10:19;;;;;;;17.70;6.13;;;0.20;99.90;;;;;;5054585;28;20025;-92
2023/02/06 00:12:45;;;;;;;19.60;6.13;;;0.20;99.90;;;;;;5053364;28;20076;-91
2023/02/06 00:15:10;;;;;;;16.30;5.22;;;0.20;99.90;;;;;;5086942;28;20040;-92
2023/02/06 00:17:37;;;;;;;19.40;5.65;;;0.10;99.90;;;;;;5053744;28;20045;-91
2023/02/06 00:20:06;;;;;;;17.67;5.25;;;0.10;99.90;;;;;;5053320;28;20017;-91
2023/02/06 00:22:32;;;;;;;17.40;5.00;;;0.10;99.90;;;;;;5053064;28;20555;-91
2023/02/06 00:24:58;;;;;;;17.85;5.47;;;0.00;99.90;;;;;;5052569;28;20072;-93
2023/02/06 00:27:23;;;;;;;14.30;5.07;;;0.00;99.90;;;;;;5043733;28;20041;-92
2023/02/06 00:29:49;;;;;;;11.48;5.28;;;0.00;99.90;;;;;;5053724;28;20052;-93
2023/02/06 00:32:15;;;;;;;21.92;5.55;;;-0.10;99.90;;;;;;5054250;28;20037;-92
2023/02/06 00:34:40;;;;;;;20.73;4.78;;;-0.10;99.90;;;;;;5053293;28;20032;-92
2023/02/06 00:37:06;;;;;;;14.38;4.75;;;-0.10;99.90;;;;;;5052689;28;20047;-92
2023/02/06 00:39:32;;;;;;;15.55;5.13;;;-0.10;99.90;;;;;;5044379;28;20052;-92
2023/02/06 00:41:57;;;;;;;19.15;5.80;;;-0.20;99.90;;;;;;5052552;28;20112;-92
2023/02/06 00:44:23;;;;;;;14.82;5.05;;;-0.20;99.90;;;;;;5042464;28;20033;-92
2023/02/06 00:46:49;;;;;;;18.80;5.72;;;-0.20;99.90;;;;;;5079471;28;20030;-93
2023/02/06 00:49:15;;;;;;;19.90;5.15;;;-0.20;99.90;;;;;;5049198;28;20029;-92
2023/02/06 00:51:41;;;;;;;14.75;5.00;;;-0.20;99.90;;;;;;5053129;28;20036;-92
2023/02/06 00:54:09;;;;;;;13.73;5.13;;;-0.20;99.90;;;;;;5047253;28;20382;-91
2023/02/06 00:56:35;;;;;;;19.00;5.22;;;-0.30;99.90;;;;;;5043691;28;20029;-92
2023/02/06 00:59:01;;;;;;;13.43;4.55;;;-0.30;99.90;;;;;;5068798;28;20047;-92
2023/02/06 01:01:27;;;;;;;16.13;4.63;;;-0.30;99.90;;;;;;5077700;28;20013;-91
2023/02/06 01:03:53;;;;;;;18.15;4.85;;;-0.30;99.90;;;;;;5073287;28;20020;-90
2023/02/06 01:06:19;;;;;;;23.25;6.10;;;-0.40;99.90;;;;;;5071944;28;20557;-93
2023/02/06 01:08:45;;;;;;;19.70;4.90;;;-0.40;99.90;;;;;;5049657;28;20052;-91
2023/02/06 01:11:17;;;;;;;31.05;10.90;;;-0.40;99.90;;;;;;5045204;28;20041;-91
2023/02/06 01:13:43;;;;;;;38.67;9.27;;;-0.50;99.90;;;;;;5050052;28;20041;-91
2023/02/06 01:16:15;;;;;;;19.38;6.00;;;-0.50;99.90;;;;;;5046091;28;20543;-92
2023/02/06 01:18:41;;;;;;;18.35;6.43;;;-0.50;99.90;;;;;;5043697;28;20070;-92
2023/02/06 01:21:10;;;;;;;19.45;4.97;;;-0.50;99.90;;;;;;5085283;28;20067;-91
2023/02/06 01:23:39;;;;;;;13.70;5.80;;;-0.60;99.90;;;;;;5079298;28;20032;-90
2023/02/06 01:26:11;;;;;;;15.63;5.47;;;-0.60;99.90;;;;;;5046972;28;20033;-90
2023/02/06 01:28:38;;;;;;;16.20;5.05;;;-0.60;99.90;;;;;;5049065;28;20056;-91
2023/02/06 01:31:21;;;;;;;11.70;4.35;;;-0.60;99.90;;;;;;5049355;28;20041;-91
2023/02/06 01:33:50;;;;;;;12.07;4.70;;;-0.60;99.90;;;;;;5064769;28;20057;-91
2023/02/06 01:36:17;;;;;;;16.30;5.10;;;-0.60;99.90;;;;;;5060741;28;20032;-92
2023/02/06 01:38:46;;;;;;;17.30;4.72;;;-0.60;99.90;;;;;;5044461;28;20038;-91
2023/02/06 01:41:13;;;;;;;13.95;5.10;;;-0.60;99.90;;;;;;5043251;28;20024;-91
2023/02/06 01:43:42;;;;;;;19.08;6.00;;;-0.60;99.90;;;;;;5077515;28;20041;-90
2023/02/06 01:46:08;;;;;;;16.00;5.18;;;-0.70;99.90;;;;;;5052531;28;20025;-90
2023/02/06 01:48:48;;;;;;;17.45;5.18;;;-0.70;99.90;;;;;;5039984;28;20029;-91
2023/02/06 01:51:22;;;;;;;12.48;5.22;;;-0.70;99.90;;;;;;5039256;28;20040;-91
2023/02/06 01:53:51;;;;;;;16.00;5.10;;;-0.70;99.90;;;;;;5079426;28;20033;-91
2023/02/06 01:56:19;;;;;;;13.02;4.78;;;-0.70;99.90;;;;;;5062187;28;20117;-91
2023/02/06 01:58:52;;;;;;;17.17;5.45;;;-0.80;99.90;;;;;;5061327;28;20048;-93
2023/02/06 02:01:18;;;;;;;17.02;4.38;;;-0.80;99.90;;;;;;5061546;28;20474;-91
2023/02/06 02:03:48;;;;;;;12.95;4.28;;;-0.80;99.90;;;;;;5056054;28;20493;-92
2023/02/06 02:06:17;;;;;;;12.57;5.47;;;-0.80;99.90;;;;;;5051412;28;20079;-91
2023/02/06 02:08:45;;;;;;;12.07;5.30;;;-0.90;99.90;;;;;;5054144;28;20502;-91
2023/02/06 02:11:20;;;;;;;15.27;5.40;;;-0.90;99.90;;;;;;5052400;28;20021;-91
2023/02/06 02:13:51;;;;;;;12.88;5.30;;;-0.90;99.90;;;;;;5082993;28;20025;-90
2023/02/06 02:16:38;;;;;;;14.30;5.60;;;-0.90;99.90;;;;;;5052999;28;20474;-91
2023/02/06 02:19:34;;;;;;;10.68;4.68;;;-0.90;99.90;;;;;;5068625;28;20094;-91
2023/02/06 02:22:37;;;;;;;16.75;4.72;;;-1.00;99.90;;;;;;5052562;28;20025;-91
2023/02/06 02:25:31;;;;;;;16.90;4.97;;;-1.00;99.90;;;;;;5052541;28;20090;-90
2023/02/06 02:28:15;;;;;;;17.25;5.65;;;-1.00;99.90;;;;;;5053317;28;20036;-90
2023/02/06 02:30:59;;;;;;;14.30;5.50;;;-1.10;99.90;;;;;;5059989;28;20025;-90
2023/02/06 02:33:54;;;;;;;25.15;7.00;;;-1.10;99.90;;;;;;5058051;28;20029;-90
2023/02/06 02:36:36;;;;;;;17.58;5.80;;;-1.10;99.90;;;;;;5056960;28;20037;-89
2023/02/06 02:39:30;;;;;;;16.65;6.22;;;-1.20;99.90;;;;;;5054245;28;20087;-91
2023/02/06 02:41:57;;;;;;;18.75;6.55;;;-1.30;99.90;;;;;;5053338;28;20091;-90
2023/02/06 02:44:42;;;;;;;26.48;7.85;;;-1.30;99.90;;;;;;5052434;28;20029;-91
2023/02/06 02:47:10;;;;;;;19.23;6.30;;;-1.30;99.90;;;;;;5052712;28;20021;-90
2023/02/06 02:49:38;;;;;;;22.10;5.72;;;-1.40;99.90;;;;;;5052426;28;20115;-90
2023/02/06 02:52:04;;;;;;;18.92;6.25;;;-1.30;99.90;;;;;;5052641;28;20025;-91
2023/02/06 02:54:30;;;;;;;19.35;5.47;;;-1.40;99.90;;;;;;5054368;28;20029;-90
2023/02/06 02:57:01;;;;;;;17.83;4.88;;;-1.30;99.90;;;;;;5052118;28;20017;-90
2023/02/06 02:59:34;;;;;;;10.40;4.45;;;-1.30;99.90;;;;;;5052072;28;20060;-91
2023/02/06 03:02:22;;;;;;;17.85;4.55;;;-1.40;99.90;;;;;;5085573;28;20116;-91
2023/02/06 03:04:54;;;;;;;14.43;4.93;;;-1.30;99.90;;;;;;5053332;28;20108;-90
2023/02/06 03:07:40;;;;;;;16.20;4.68;;;-1.40;99.90;;;;;;5051809;28;20029;-91
2023/02/06 03:10:12;;;;;;;15.82;5.88;;;-1.40;99.90;;;;;;5052081;28;20033;-89
2023/02/06 03:12:58;;;;;;;13.85;4.25;;;-1.40;99.90;;;;;;5052869;28;20570;-90
2023/02/06 03:15:47;;;;;;;14.85;6.65;;;-1.40;99.90;;;;;;5055617;28;20025;-90
2023/02/06 03:18:18;;;;;;;18.08;5.40;;;-1.40;99.90;;;;;;5055350;28;20041;-90
2023/02/06 03:20:46;;;;;;;20.23;5.85;;;-1.30;99.90;;;;;;5055569;28;20091;-90
2023/02/06 03:23:17;;;;;;;23.67;6.00;;;-1.30;99.90;;;;;;5055428;28;20052;-90
2023/02/06 03:25:45;;;;;;;15.98;6.13;;;-1.30;99.90;;;;;;5055481;28;20029;-90
2023/02/06 03:28:17;;;;;;;17.40;5.43;;;-1.20;99.90;;;;;;5056391;28;20028;-90
2023/02/06 03:30:45;;;;;;;22.98;6.28;;;-1.20;99.90;;;;;;5055151;28;20028;-90
2023/02/06 03:33:14;;;;;;;17.88;6.80;;;-1.20;99.90;;;;;;5088932;28;20039;-89
2023/02/06 03:35:40;;;;;;;22.33;6.63;;;-1.20;99.90;;;;;;5054974;28;20107;-90
2023/02/06 03:38:07;;;;;;;24.17;6.90;;;-1.20;99.90;;;;;;5054822;28;20162;-90
2023/02/06 03:40:34;;;;;;;20.17;6.78;;;-1.20;99.90;;;;;;5055008;28;20055;-89
2023/02/06 03:43:03;;;;;;;20.65;6.20;;;-1.20;99.90;;;;;;5088574;28;20402;-90
2023/02/06 03:45:36;;;;;;;17.88;6.00;;;-1.30;99.90;;;;;;5054551;28;20025;-90
2023/02/06 03:48:06;;;;;;;25.00;6.35;;;-1.30;99.90;;;;;;5054993;28;20313;-90
2023/02/06 03:50:34;;;;;;;19.92;6.57;;;-1.30;99.90;;;;;;5054752;28;20051;-90
2023/02/06 03:53:02;;;;;;;19.08;6.07;;;-1.30;99.90;;;;;;5054975;28;20088;-89
2023/02/06 03:55:28;;;;;;;18.92;6.43;;;-1.20;99.90;;;;;;5054600;28;20024;-90
2023/02/06 03:58:13;;;;;;;16.95;5.68;;;-1.20;99.90;;;;;;5054726;28;20078;-90
2023/02/06 04:00:41;;;;;;;20.92;5.40;;;-1.30;99.90;;;;;;5088248;28;20029;-90
2023/02/06 04:03:09;;;;;;;14.88;5.95;;;-1.30;99.90;;;;;;5054500;28;20069;-89
2023/02/06 04:05:35;;;;;;;13.15;5.00;;;-1.30;99.90;;;;;;5054280;28;20028;-89
2023/02/06 04:08:01;;;;;;;17.35;5.45;;;-1.30;99.90;;;;;;5054529;28;20029;-89
2023/02/06 04:10:27;;;;;;;16.67;5.32;;;-1.30;99.90;;;;;;5087753;28;20031;-90
2023/02/06 04:12:52;;;;;;;21.05;6.70;;;-1.30;99.90;;;;;;5054167;28;20060;-90
2023/02/06 04:15:18;;;;;;;20.45;6.65;;;-1.30;99.90;;;;;;5054072;28;20071;-90
2023/02/06 04:17:44;;;;;;;21.55;6.80;;;-1.30;99.90;;;;;;5053976;28;20120;-90
2023/02/06 04:20:10;;;;;;;18.60;6.25;;;-1.30;99.90;;;;;;5054038;28;20040;-90
2023/02/06 04:22:35;;;;;;;15.70;6.03;;;-1.30;99.90;;;;;;5054135;28;20025;-89
2023/02/06 04:25:01;;;;;;;20.05;6.53;;;-1.40;99.90;;;;;;5053302;28;20097;-90
2023/02/06 04:27:27;;;;;;;19.17;5.72;;;-1.40;99.90;;;;;;5054016;28;20033;-89
2023/02/06 04:29:52;;;;;;;17.67;6.18;;;-1.40;99.90;;;;;;5053931;28;20029;-90
2023/02/06 04:32:18;;;;;;;19.45;5.97;;;-1.40;99.90;;;;;;5054028;28;20025;-90
2023/02/06 04:34:44;;;;;;;17.85;6.05;;;-1.40;99.90;;;;;;5053938;28;20029;-90
2023/02/06 04:37:11;;;;;;;21.35;6.50;;;-1.40;99.90;;;;;;5053555;28;20104;-89
2023/02/06 04:39:37;;;;;;;18.85;5.40;;;-1.40;99.90;;;;;;5054974;28;20470;-90
2023/02/06 04:42:04;;;;;;;20.15;6.97;;;-1.40;99.90;;;;;;5054391;28;20040;-87
2023/02/06 04:44:30;;;;;;;17.23;5.68;;;-1.40;99.90;;;;;;5054048;28;20032;-88
2023/02/06 04:46:56;;;;;;;16.52;6.85;;;-1.40;99.90;;;;;;5054275;28;20359;-88
2023/02/06 04:49:22;;;;;;;18.25;7.07;;;-1.40;99.90;;;;;;5053996;28;20078;-88
2023/02/06 04:51:48;;;;;;;19.85;6.18;;;-1.40;99.90;;;;;;5053884;28;20413;-90
2023/02/06 04:54:16;;;;;;;16.98;5.45;;;-1.50;99.90;;;;;;5053671;28;20036;-90
2023/02/06 04:56:42;;;;;;;17.13;5.95;;;-1.50;99.90;;;;;;5053905;28;20025;-90
2023/02/06 04:59:08;;;;;;;18.85;5.97;;;-1.40;99.90;;;;;;5054458;28;20044;-89
2023/02/06 05:01:33;;;;;;;21.90;5.75;;;-1.50;99.90;;;;;;5053981;28;20025;-89
2023/02/06 05:03:59;;;;;;;22.55;5.82;;;-1.40;99.90;;;;;;5056127;28;20039;-87
2023/02/06 05:06:24;;;;;;;20.90;6.38;;;-1.50;99.90;;;;;;5065440;28;20025;-87
2023/02/06 05:08:50;;;;;;;19.42;6.38;;;-1.50;99.90;;;;;;5072666;28;20063;-90
2023/02/06 05:11:16;;;;;;;17.00;6.28;;;-1.50;99.90;;;;;;5067617;28;20112;-90
2023/02/06 05:13:42;;;;;;;20.08;6.35;;;-1.50;99.90;;;;;;5054106;28;20485;-90
2023/02/06 05:16:13;;;;;;;13.65;6.15;;;-1.50;99.90;;;;;;5053096;28;20048;-89
2023/02/06 05:18:39;;;;;;;10.63;4.90;;;-1.60;99.90;;;;;;5052725;28;20063;-90
2023/02/06 05:21:05;;;;;;;13.55;5.80;;;-1.60;99.90;;;;;;5053333;28;20025;-90
2023/02/06 05:23:31;;;;;;;14.68;5.03;;;-1.60;99.90;;;;;;5052932;28;20029;-89
2023/02/06 05:25:58;;;;;;;13.32;4.53;;;-1.50;99.90;;;;;;5052990;28;20028;-89
2023/02/06 05:28:24;;;;;;;14.25;4.88;;;-1.50;99.90;;;;;;5052946;28;20037;-89
2023/02/06 05:30:49;;;;;;;14.93;5.20;;;-1.50;99.90;;;;;;5053130;28;20035;-88
2023/02/06 05:33:15;;;;;;;14.63;4.75;;;-1.50;99.90;;;;;;5054011;28;20104;-90
2023/02/06 05:35:41;;;;;;;15.23;4.72;;;-1.50;99.90;;;;;;5052335;28;20075;-89
2023/02/06 05:38:07;;;;;;;13.68;5.40;;;-1.40;99.90;;;;;;5052487;28;20049;-90
2023/02/06 05:40:32;;;;;;;9.55;4.00;;;-1.50;99.90;;;;;;5052885;28;20382;-90
2023/02/06 05:42:58;;;;;;;15.68;4.18;;;-1.50;99.90;;;;;;5053802;28;20063;-89
2023/02/06 05:45:24;;;;;;;16.23;4.75;;;-1.50;99.90;;;;;;5054328;28;20029;-89
2023/02/06 05:47:51;;;;;;;15.27;4.20;;;-1.50;99.90;;;;;;5054516;28;20190;-90
2023/02/06 05:50:16;;;;;;;16.73;3.75;;;-1.50;99.90;;;;;;5053466;28;20083;-90
2023/02/06 05:52:42;;;;;;;12.25;4.65;;;-1.60;99.90;;;;;;5053329;28;20025;-90
2023/02/06 05:55:08;;;;;;;15.15;4.65;;;-1.60;99.90;;;;;;5053976;28;20052;-90
2023/02/06 05:57:34;;;;;;;13.63;4.60;;;-1.70;99.90;;;;;;5054478;28;20029;-90
2023/02/06 06:00:00;;;;;;;15.10;4.50;;;-1.70;99.90;;;;;;5055116;28;20036;-91
2023/02/06 06:02:25;;;;;;;10.68;3.80;;;-1.80;99.90;;;;;;5053929;28;20028;-90
2023/02/06 06:04:51;;;;;;;21.70;5.07;;;-1.80;99.90;;;;;;5053732;28;20029;-90
2023/02/06 06:07:17;;;;;;;18.40;4.30;;;-1.80;99.90;;;;;;5054356;28;20028;-90
2023/02/06 06:09:42;;;;;;;10.30;3.55;;;-1.90;99.90;;;;;;5055207;28;20039;-90
2023/02/06 06:12:08;;;;;;;15.77;4.22;;;-1.90;99.90;;;;;;5057333;28;20087;-90
2023/02/06 06:14:34;;;;;;;12.65;4.57;;;-1.90;99.90;;;;;;5055175;28;20112;-88
2023/02/06 06:17:00;;;;;;;12.27;4.00;;;-1.90;99.90;;;;;;5052278;28;20021;-90
2023/02/06 06:19:25;;;;;;;16.30;4.25;;;-2.00;99.90;;;;;;5052602;28;20072;-91
2023/02/06 06:21:51;;;;;;;20.52;4.15;;;-2.00;99.90;;;;;;5052551;28;20048;-91
2023/02/06 06:24:16;;;;;;;15.88;4.07;;;-2.00;99.90;;;;;;5052353;28;20036;-90
2023/02/06 06:26:42;;;;;;;13.40;4.45;;;-2.00;99.90;;;;;;5052284;28;20112;-91
2023/02/06 06:29:10;;;;;;;16.17;4.10;;;-2.00;99.90;;;;;;5052472;28;20128;-91
2023/02/06 06:31:36;;;;;;;13.05;4.47;;;-2.00;99.90;;;;;;5052187;28;20017;-90
2023/02/06 06:34:01;;;;;;;20.05;4.97;;;-2.10;99.90;;;;;;5052708;28;20389;-89
2023/02/06 06:36:27;;;;;;;15.77;4.22;;;-2.10;99.90;;;;;;5052102;28;20031;-89
2023/02/06 06:38:53;;;;;;;11.63;4.93;;;-2.10;99.90;;;;;;5052397;28;20044;-90
2023/02/06 06:41:18;;;;;;;11.63;4.90;;;-2.10;99.90;;;;;;5052197;28;20596;-92
2023/02/06 06:43:44;;;;;;;22.85;5.47;;;-2.20;99.90;;;;;;5059319;28;20029;-92
2023/02/06 06:46:10;;;;;;;15.30;4.80;;;-2.20;99.90;;;;;;5062913;28;20047;-91
2023/02/06 06:48:37;;;;;;;11.75;4.15;;;-2.20;99.90;;;;;;5065771;28;20025;-90
2023/02/06 06:51:03;;;;;;;16.15;5.10;;;-2.20;99.90;;;;;;5064232;28;20021;-89
2023/02/06 06:53:29;;;;;;;16.10;4.70;;;-2.30;99.90;;;;;;5066487;28;20028;-91
2023/02/06 06:56:02;;;;;;;14.10;4.43;;;-2.30;99.90;;;;;;5066235;28;20077;-91
2023/02/06 06:58:27;;;;;;;15.80;4.20;;;-2.30;99.90;;;;;;5063758;28;20033;-91
2023/02/06 07:00:53;;;;;;;12.77;4.10;;;-2.30;99.90;;;;;;5064416;28;20482;-90
2023/02/06 07:03:24;;;;;;;13.95;4.10;;;-2.30;99.90;;;;;;5065788;28;20035;-89
2023/02/06 07:05:49;;;;;;;8.50;3.38;;;-2.30;99.90;;;;;;5066704;28;20025;-90
2023/02/06 07:08:15;;;;;;;12.10;3.67;;;-2.30;99.90;;;;;;5064666;28;20060;-90
2023/02/06 07:10:41;;;;;;;14.90;3.67;;;-2.20;99.90;;;;;;5065309;28;20036;-88
2023/02/06 07:13:06;;;;;;;10.70;3.22;;;-2.20;99.90;;;;;;5075740;28;20024;-90
2023/02/06 07:15:32;;;;;;;12.63;4.32;;;-2.20;99.90;;;;;;5077307;28;20116;-90
2023/02/06 07:17:58;;;;;;;14.35;4.18;;;-2.20;99.90;;;;;;5075260;28;20119;-90
2023/02/06 07:20:23;;;;;;;15.02;4.00;;;-2.20;99.90;;;;;;5076961;28;20024;-90
2023/02/06 07:22:49;;;;;;;13.10;4.38;;;-2.30;99.90;;;;;;5077750;28;20086;-90
2023/02/06 07:25:17;;;;;;;12.88;5.50;;;-2.30;99.90;;;;;;5076234;28;20036;-91
2023/02/06 07:27:42;;;;;;;15.02;5.55;;;-2.30;99.90;;;;;;5062877;28;20033;-89
2023/02/06 07:30:09;;;;;;;17.55;5.18;;;-2.40;99.90;;;;;;5058344;28;20025;-89
2023/02/06 07:32:35;;;;;;;10.30;5.13;;;-2.40;99.90;;;;;;5059581;28;20051;-91
2023/02/06 07:35:01;;;;;;;17.27;4.70;;;-2.40;99.90;;;;;;5057954;28;20024;-91
2023/02/06 07:37:27;;;;;;;14.55;5.65;;;-2.40;99.90;;;;;;5056496;28;20041;-90
2023/02/06 07:39:53;;;;;;;13.35;5.03;;;-2.50;99.90;;;;;;5055810;28;20033;-91
2023/02/06 07:42:18;;;;;;;16.00;4.20;;;-2.50;99.90;;;;;;5056877;28;20545;-90
2023/02/06 07:44:44;;;;;;;17.98;5.50;;;-2.50;99.90;;;;;;5056354;28;20029;-87
2023/02/06 07:47:10;;;;;;;18.90;4.88;;;-2.50;99.90;;;;;;5058116;28;20029;-90
2023/02/06 07:49:35;;;;;;;14.55;4.75;;;-2.60;99.90;;;;;;5057049;28;20059;-89
2023/02/06 07:52:01;;;;;;;17.02;5.35;;;-2.60;99.90;;;;;;5059326;28;20029;-90
2023/02/06 07:54:27;;;;;;;13.10;5.30;;;-2.50;99.90;;;;;;5065910;28;20024;-89
2023/02/06 07:56:53;;;;;;;16.27;5.68;;;-2.50;99.90;;;;;;5077281;28;20028;-89
2023/02/06 07:59:19;;;;;;;18.45;4.75;;;-2.50;99.90;;;;;;5081224;28;20040;-90
2023/02/06 08:01:45;;;;;;;14.20;4.95;;;-2.60;99.90;;;;;;5096338;28;20020;-88
2023/02/06 08:04:10;;;;;;;17.02;5.15;;;-2.60;99.90;;;;;;5096386;28;20028;-88
2023/02/06 08:06:40;;;;;;;19.25;5.22;;;-2.60;99.90;;;;;;5095598;28;20056;-88
2023/02/06 08:09:06;;;;;;;9.15;2.97;;;-2.70;99.90;;;;;;5079822;28;20052;-89
2023/02/06 08:11:32;;;;;;;17.33;4.63;;;-2.70;99.90;;;;;;5082573;28;20028;-89
2023/02/06 08:13:57;;;;;;;14.48;4.13;;;-2.70;99.90;;;;;;5072421;28;20637;-91
2023/02/06 08:16:24;;;;;;;8.15;3.78;;;-2.70;99.90;;;;;;5069623;28;20081;-90
2023/02/06 08:18:50;;;;;;;13.00;4.53;;;-2.70;99.90;;;;;;5099765;28;20037;-90
2023/02/06 08:21:18;;;;;;;14.48;5.28;;;-2.70;99.90;;;;;;5068710;28;20016;-90
2023/02/06 08:23:44;;;;;;;13.98;4.72;;;-2.60;99.90;;;;;;5071749;28;20033;-90
2023/02/06 08:26:15;;;;;;;21.10;5.57;;;-2.60;99.90;;;;;;5067401;28;20020;-90
2023/02/06 08:28:43;;;;;;;12.77;4.20;;;-2.60;99.90;;;;;;5065323;28;20060;-88
2023/02/06 08:31:22;;;;;;;14.70;4.75;;;-2.60;99.90;;;;;;5059531;28;20032;-90
2023/02/06 08:33:48;;;;;;;13.90;4.22;;;-2.60;99.90;;;;;;5059638;28;20029;-90
2023/02/06 08:36:16;;;;;;;13.18;4.80;;;-2.60;99.90;;;;;;5058022;28;20029;-90
2023/02/06 08:38:42;;;;;;;12.88;5.47;;;-2.60;99.90;;;;;;5055532;28;20037;-90
2023/02/06 08:41:18;;;;;;;18.80;4.70;;;-2.60;99.90;;;;;;5055849;28;20390;-90
2023/02/06 08:43:48;;;;;;;15.65;4.85;;;-2.70;99.90;;;;;;5054851;28;20021;-87
2023/02/06 08:46:18;;;;;;;11.27;4.63;;;-2.70;99.90;;;;;;5055112;28;20075;-87
2023/02/06 08:48:44;;;;;;;11.68;3.60;;;-2.60;99.90;;;;;;5057722;28;20505;-88
2023/02/06 08:51:11;;;;;;;15.55;5.80;;;-2.50;99.90;;;;;;5053488;28;20021;-89
2023/02/06 08:53:38;;;;;;;14.60;6.07;;;-2.30;99.90;;;;;;5066678;28;20181;-88
2023/02/06 08:56:09;;;;;;;18.70;7.28;;;-2.10;99.90;;;;;;5100159;28;20052;-89
2023/02/06 08:58:36;;;;;;;19.67;6.72;;;-1.90;99.90;;;;;;5076262;28;20035;-88
2023/02/06 09:01:13;;;;;;;17.60;7.35;;;-1.80;99.90;;;;;;5076657;28;20026;-91
2023/02/06 09:03:40;;;;;;;22.83;7.60;;;-1.70;99.90;;;;;;5076237;28;20031;-89
2023/02/06 09:06:06;;;;;;;17.67;6.18;;;-1.60;99.90;;;;;;5075569;28;20017;-88
2023/02/06 09:08:32;;;;;;;23.48;6.75;;;-1.50;99.90;;;;;;5074806;28;20354;-87
2023/02/06 09:11:07;;;;;;;16.02;6.45;;;-1.40;99.90;;;;;;5074170;28;20509;-90
2023/02/06 09:13:33;;;;;;;23.92;7.65;;;-1.30;99.90;;;;;;5054642;28;20067;-88
2023/02/06 09:15:59;;;;;;;22.60;8.23;;;-1.30;99.90;;;;;;5053677;28;20545;-89
2023/02/06 09:18:24;;;;;;;26.45;8.77;;;-1.20;99.90;;;;;;5053601;28;20116;-90
2023/02/06 09:20:51;;;;;;;19.70;7.63;;;-1.10;99.90;;;;;;5058669;28;20398;-89
2023/02/06 09:23:18;;;;;;;16.27;7.22;;;-1.10;99.90;;;;;;5054952;28;20033;-88
2023/02/06 09:25:44;;;;;;;16.30;6.97;;;-1.00;99.90;;;;;;5053280;28;20104;-89
2023/02/06 09:28:11;;;;;;;22.85;7.35;;;-0.90;99.90;;;;;;5053319;28;20040;-88
2023/02/06 09:30:37;;;;;;;18.95;6.60;;;-0.90;99.90;;;;;;5053253;28;20039;-89
2023/02/06 09:33:03;;;;;;;27.92;8.75;;;-0.80;99.90;;;;;;5052913;28;20118;-89
2023/02/06 09:35:29;;;;;;;25.10;8.50;;;-0.70;99.90;;;;;;5053822;28;20033;-90
2023/02/06 09:37:55;;;;;;;24.48;8.90;;;-0.60;99.90;;;;;;5053249;28;20041;-91
2023/02/06 09:40:26;;;;;;;25.65;9.38;;;-0.50;99.90;;;;;;5047598;28;20056;-90
2023/02/06 09:42:53;;;;;;;25.75;8.07;;;-0.40;99.90;;;;;;5054736;28;20478;-90
2023/02/06 09:45:23;;;;;;;22.33;6.70;;;-0.10;99.90;;;;;;5053123;28;20033;-89
2023/02/06 09:47:55;;;;;;;16.85;6.60;;;0.00;99.90;;;;;;5053413;28;20050;-90
2023/02/06 09:51:03;;;;;;;23.55;6.97;;;0.20;99.90;;;;;;5052565;28;20033;-90
2023/02/06 09:53:47;;;;;;;12.65;4.45;;;0.60;99.90;;;;;;5084711;28;20029;-90
2023/02/06 09:56:35;;;;;;;11.77;4.38;;;0.90;99.90;;;;;;5086275;28;20475;-88
2023/02/06 09:59:16;;;;;;;13.45;4.30;;;1.20;99.90;;;;;;5059903;28;20037;-89
2023/02/06 10:02:10;;;;;;;18.75;5.65;;;1.60;99.90;;;;;;5060111;28;20033;-89
2023/02/06 10:04:57;;;;;;;19.23;5.70;;;1.80;99.90;;;;;;5053505;28;20039;-89
2023/02/06 10:07:46;;;;;;;21.38;6.50;;;2.20;99.90;;;;;;5059954;28;20021;-89
2023/02/06 10:10:16;;;;;;;27.50;6.68;;;2.50;99.90;;;;;;5090591;28;20071;-90
2023/02/06 10:12:46;;;;;;;19.30;5.90;;;2.80;99.90;;;;;;5062561;28;20494;-89
2023/02/06 10:15:23;;;;;;;17.83;6.53;;;3.20;99.90;;;;;;5062658;28;20042;-89
2023/02/06 10:18:29;;;;;;;20.00;7.47;;;3.50;99.90;;;;;;5060319;28;20054;-89
2023/02/06 10:21:00;;;;;;;19.88;6.32;;;3.90;99.90;;;;;;5020645;28;20512;-88
2023/02/06 10:23:37;;;;;;;23.00;7.80;;;4.20;99.90;;;;;;5060411;28;20059;-90
2023/02/06 10:26:20;;;;;;;21.92;6.95;;;4.40;99.90;;;;;;5063522;28;20024;-89
2023/02/06 10:28:55;;;;;;;21.15;6.80;;;4.70;99.90;;;;;;5069802;28;20040;-89
2023/02/06 10:31:23;;;;;;;23.33;7.78;;;4.90;99.90;;;;;;5093633;28;20482;-89
2023/02/06 10:33:49;;;;;;;24.13;8.20;;;5.20;99.90;;;;;;5066655;28;20025;-90
2023/02/06 10:36:21;;;;;;;24.35;10.30;;;5.40;99.90;;;;;;5063630;28;20027;-87
2023/02/06 10:39:22;;;;;;;18.85;7.43;;;5.60;99.90;;;;;;5062590;28;20469;-89
2023/02/06 10:42:02;;;;;;;22.55;7.25;;;5.80;99.90;;;;;;5057803;28;20029;-87
2023/02/06 10:44:37;;;;;;;;;;;6.00;99.90;;;;;;5096047;28;20032;-87
2023/02/06 10:47:16;;;;;;;19.85;6.22;;;6.20;99.90;;;;;;5096213;28;19976;-88
2023/02/06 10:49:51;;;;;;;21.10;6.95;;;6.40;99.90;;;;;;5095981;28;20040;-88
2023/02/06 10:52:32;;;;;;;18.50;6.88;;;6.70;99.90;;;;;;5094615;28;20100;-88
2023/02/06 10:55:26;;;;;;;22.02;7.32;;;7.00;99.90;;;;;;5065868;28;20470;-88
2023/02/06 10:58:09;;;;;;;18.10;5.15;;;7.30;99.90;;;;;;5052760;28;20079;-88
2023/02/06 11:00:38;;;;;;;13.65;4.63;;;7.50;99.90;;;;;;5054940;28;20021;-89
2023/02/06 11:03:09;;;;;;;16.15;4.75;;;7.80;99.90;;;;;;5054986;28;20071;-89
2023/02/06 11:05:36;;;;;;;17.25;5.45;;;8.00;99.90;;;;;;5054831;28;20103;-90
2023/02/06 11:08:17;;;;;;;15.40;4.93;;;8.30;99.90;;;;;;5055675;28;20076;-87
2023/02/06 11:10:45;;;;;;;13.10;3.88;;;8.60;99.90;;;;;;5051644;28;20032;-89
2023/02/06 11:13:23;;;;;;;14.93;4.00;;;8.70;99.90;;;;;;5055082;28;20113;-89
2023/02/06 11:15:59;;;;;;;11.05;3.83;;;9.00;99.90;;;;;;5086226;28;20025;-88
2023/02/06 11:18:33;;;;;;;14.32;4.32;;;9.20;99.90;;;;;;5054514;28;20032;-88
2023/02/06 11:20:58;;;;;;;13.38;5.07;;;9.30;99.90;;;;;;5055006;28;20028;-88
2023/02/06 11:23:28;;;;;;;11.13;4.30;;;9.50;99.80;;;;;;5062706;28;20028;-89
2023/02/06 11:26:05;;;;;;;17.95;4.40;;;9.70;99.10;;;;;;5061008;28;20029;-88
2023/02/06 11:28:33;;;;;;;11.63;4.18;;;9.80;97.80;;;;;;5059946;28;20062;-88
2023/02/06 11:31:02;;;;;;;14.65;3.88;;;9.90;97.00;;;;;;5065485;28;20103;-89
2023/02/06 11:33:39;;;;;;;19.20;4.35;;;10.00;96.10;;;;;;5064761;28;20028;-91
2023/02/06 11:36:19;;;;;;;9.82;3.63;;;10.10;95.30;;;;;;5075358;28;20549;-89
2023/02/06 11:38:53;;;;;;;13.80;3.70;;;10.20;94.70;;;;;;5075431;28;20128;-91
2023/02/06 11:41:19;;;;;;;13.88;3.40;;;10.50;94.20;;;;;;5077425;28;20021;-88
2023/02/06 11:43:49;;;;;;;15.50;3.85;;;10.70;93.80;;;;;;5080345;28;20035;-92
2023/02/06 11:46:28;;;;;;;14.98;3.38;;;11.00;92.90;;;;;;5075706;28;20023;-91
2023/02/06 11:48:59;;;;;;;7.47;2.58;;;11.20;91.90;;;;;;5063874;28;20041;-90
2023/02/06 11:52:03;;;;;;;12.90;3.30;;;11.40;91.10;;;;;;5064380;28;20055;-90
2023/02/06 11:54:34;;;;;;;12.40;3.03;;;11.80;89.30;;;;;;5059889;28;20033;-92
2023/02/06 11:57:06;;;;;;;11.63;3.30;;;12.10;87.60;;;;;;5035696;28;20125;-92
2023/02/06 11:59:34;;;;;;;11.95;2.90;;;12.30;85.90;;;;;;5051058;28;20405;-90
2023/02/06 12:02:04;;;;;;;9.23;2.65;;;12.50;84.30;;;;;;5054477;28;20029;-91
2023/02/06 12:04:37;;;;;;;12.25;2.60;;;12.80;82.80;;;;;;5066838;28;20109;-90
2023/02/06 12:07:21;;;;;;;12.60;2.53;;;13.10;81.10;;;;;;5054314;28;20041;-92
2023/02/06 12:09:47;;;;;;;13.10;3.30;;;13.30;79.50;;;;;;5065455;28;20095;-92
2023/02/06 12:12:25;;;;;;;13.95;4.18;;;13.50;78.60;;;;;;5075170;28;20024;-91
2023/02/06 12:15:00;;;;;;;14.45;3.83;;;13.70;77.50;;;;;;5075282;28;20128;-92
2023/02/06 12:17:39;;;;;;;13.30;3.45;;;13.90;76.80;;;;;;5074380;28;20050;-90
2023/02/06 12:20:22;;;;;;;9.32;3.22;;;14.00;76.10;;;;;;5073709;28;20033;-93
2023/02/06 12:23:03;;;;;;;12.48;3.17;;;14.10;75.50;;;;;;5074068;28;20029;-91
2023/02/06 12:25:37;;;;;;;13.02;2.78;;;14.20;75.00;;;;;;5073698;28;20025;-92
2023/02/06 12:28:42;;;;;;;7.68;2.47;;;14.40;74.00;;;;;;5058434;28;20037;-92
2023/02/06 12:31:42;;;;;;;12.05;2.95;;;14.60;72.30;;;;;;5054946;28;20067;-90
2023/02/06 12:34:18;;;;;;;11.65;2.40;;;14.90;71.00;;;;;;5054599;28;20037;-92
2023/02/06 12:37:13;;;;;;;7.35;2.08;;;15.10;69.50;;;;;;5053033;28;20033;-91
2023/02/06 12:39:41;;;;;;;12.98;2.75;;;15.30;68.70;;;;;;5054203;28;20065;-91
2023/02/06 12:42:28;;;;;;;11.68;2.42;;;15.70;68.40;;;;;;5053628;28;20025;-93
2023/02/06 12:45:23;;;;;;;12.50;2.58;;;15.90;66.60;;;;;;5054277;28;20106;-90
2023/02/06 12:48:09;;;;;;;11.30;2.10;;;16.20;66.00;;;;;;5043899;28;20090;-92
2023/02/06 12:50:54;;;;;;;7.32;2.05;;;16.50;64.90;;;;;;5052830;28;20037;-90
2023/02/06 12:53:36;;;;;;;8.60;2.70;;;16.30;63.90;;;;;;5053234;28;20588;-91
2023/02/06 12:56:25;;;;;;;9.10;2.10;;;16.30;64.00;;;;;;5092843;28;20025;-92